Estación de La Unión Norte

Ultimos registro cada 15 minutos 78
Estación Fecha / Hora Temperatura Humedad Lluvia Velocidad Dirección Radiación Presion
78 La Unión Norte 04-05-2026 19:15 11,9 93,2 0 0 331 0,6 1009,3
77 La Unión Norte 04-05-2026 19:00 11,9 93,3 0 0 331 0,6 1009,3
76 La Unión Norte 04-05-2026 18:45 12 93,7 0 0 331 0,6 1009,2
75 La Unión Norte 04-05-2026 18:30 11,7 93,4 0 0 331 0,6 1009,1
74 La Unión Norte 04-05-2026 18:15 12 92,9 0 0 331 0,6 1008,9
73 La Unión Norte 04-05-2026 18:00 12,1 92,2 0 0 331 0,6 1008,9
72 La Unión Norte 04-05-2026 17:45 12,3 91 0 0 331 0,6 1009,1
71 La Unión Norte 04-05-2026 17:30 12,6 89,7 0 0 331 4,4 1009,1
70 La Unión Norte 04-05-2026 17:15 12,8 88,6 0 0 312 13,1 1009,2
69 La Unión Norte 04-05-2026 17:00 12,7 90,6 0 0 310 15,6 1009,3
68 La Unión Norte 04-05-2026 16:45 12,9 90,5 0 0 310 23,1 1009,2
67 La Unión Norte 04-05-2026 16:30 12,9 90,1 0,2 0 310 34,4 1008,9
66 La Unión Norte 04-05-2026 16:15 12,8 89,4 0 0 326 48,1 1008,6
65 La Unión Norte 04-05-2026 16:00 12,6 89,4 0 0,5 216 51,9 1008,7
64 La Unión Norte 04-05-2026 15:45 13,3 88,3 0 0 205 39,4 1008,7
63 La Unión Norte 04-05-2026 15:30 13,5 88,9 0 0 314 49,4 1008,6
62 La Unión Norte 04-05-2026 15:15 13,7 91,3 0 0 13 70,6 1008,2
61 La Unión Norte 04-05-2026 15:00 13,4 93,7 0 0 0 78,1 1008,1
60 La Unión Norte 04-05-2026 14:45 13,2 94,4 0,2 0 357 66,9 1008,2
59 La Unión Norte 04-05-2026 14:30 13,1 94,2 0,2 0 351 49,4 1008,4
58 La Unión Norte 04-05-2026 14:15 13,3 93,7 0,2 0 352 56,9 1008
57 La Unión Norte 04-05-2026 14:00 13,2 93,6 0,2 0 351 74,4 1008,1
56 La Unión Norte 04-05-2026 13:45 13,4 92,7 0 0 354 45,6 1008,4
55 La Unión Norte 04-05-2026 13:30 13,3 92,6 0,2 0 355 40,6 1008,5
54 La Unión Norte 04-05-2026 13:15 13,2 92 0 0 3 46,9 1008,5
53 La Unión Norte 04-05-2026 13:00 13,6 92,2 0 0 355 76,9 1008,6
52 La Unión Norte 04-05-2026 12:45 13,3 92,6 0 0 352 113,1 1008,7
51 La Unión Norte 04-05-2026 12:30 13,1 92,8 0 0 355 83,1 1008,9
50 La Unión Norte 04-05-2026 12:15 12,8 92,7 0,2 0 350 60,6 1009,2
49 La Unión Norte 04-05-2026 12:00 12,8 92,3 0 0 330 38,1 1009,1
48 La Unión Norte 04-05-2026 11:45 12,9 92,2 0 0 357 50,6 1009,2
47 La Unión Norte 04-05-2026 11:30 12,8 92,4 0 0 1 61,9 1009,1
46 La Unión Norte 04-05-2026 11:15 12,7 93 0 0 6 86,9 1009
45 La Unión Norte 04-05-2026 11:00 12,1 93,3 0 0 351 55,6 1009,1
44 La Unión Norte 04-05-2026 10:45 11,7 93,5 0 0 341 38,1 1009,4
43 La Unión Norte 04-05-2026 10:30 11,6 93,4 0 0 354 14,4 1009,5
42 La Unión Norte 04-05-2026 10:15 11,5 93,3 0 0 354 14,4 1009,8
41 La Unión Norte 04-05-2026 10:00 11,4 93,7 0 0 355 23,1 1009,6
40 La Unión Norte 04-05-2026 09:45 11,3 93,9 0 0 357 25,6 1009,5
39 La Unión Norte 04-05-2026 09:30 11,2 93,9 0 0 338 30,6 1009,5
38 La Unión Norte 04-05-2026 09:15 11,2 94 0 0 354 16,9 1009,7
37 La Unión Norte 04-05-2026 09:00 11,1 94,4 0,2 0 358 8,1 1009,7
36 La Unión Norte 04-05-2026 08:45 10,8 94,6 0 0 0 11,9 1009,8
35 La Unión Norte 04-05-2026 08:30 10,8 94,5 0 0 11 9,4 1009,5
34 La Unión Norte 04-05-2026 08:15 10,9 94,9 0 0 350 5,6 1009,5
33 La Unión Norte 04-05-2026 08:00 10,8 95,5 0 0 355 0,6 1009,2
32 La Unión Norte 04-05-2026 07:45 10,5 95,8 0 0 6 0,6 1009,3
31 La Unión Norte 04-05-2026 07:30 10,3 95,9 0 0 7 0,6 1009,3
30 La Unión Norte 04-05-2026 07:15 10,4 95,9 0 0 358 0,6 1009,5
29 La Unión Norte 04-05-2026 07:00 10,4 96,2 0 0 354 0,6 1009,6
28 La Unión Norte 04-05-2026 06:45 10,3 96,4 0 0 352 0,6 1009,4
27 La Unión Norte 04-05-2026 06:30 10,2 96,6 0 0 352 0,6 1009,2
26 La Unión Norte 04-05-2026 06:15 10,3 96,6 0 0 0 0,6 1009,3
25 La Unión Norte 04-05-2026 06:00 10,3 96,7 0 0 357 0,6 1009,5
24 La Unión Norte 04-05-2026 05:45 10,3 96,7 0 0 0 0,6 1009,4
23 La Unión Norte 04-05-2026 05:30 10,4 96,7 0 0 357 0,6 1009,3
22 La Unión Norte 04-05-2026 05:15 10,4 96,7 0 0 352 0,6 1009,4
21 La Unión Norte 04-05-2026 05:00 10,5 96,8 0 0 340 0,6 1009,9
20 La Unión Norte 04-05-2026 04:45 10,4 96,7 0 0 340 0,6 1009,9
19 La Unión Norte 04-05-2026 04:30 10,4 96,7 0 0 326 0,6 1009,8
18 La Unión Norte 04-05-2026 04:15 10,3 96,8 0 0 281 0,6 1009,7
17 La Unión Norte 04-05-2026 04:00 10,1 96,8 0 0 281 0,6 1010,1
16 La Unión Norte 04-05-2026 03:45 10,1 96,8 0 0 281 0,6 1010,3
15 La Unión Norte 04-05-2026 03:30 10,1 96,7 0 0 281 0,6 1010,4
14 La Unión Norte 04-05-2026 03:15 10,1 96,6 0 0 279 0,6 1010,3
13 La Unión Norte 04-05-2026 03:00 10,3 96,4 0,2 0 278 0,6 1010,5
12 La Unión Norte 04-05-2026 02:45 10,6 96 0,2 0 277 0,6 1010,6
11 La Unión Norte 04-05-2026 02:30 10,6 95,9 0 0 274 0,6 1010,9
10 La Unión Norte 04-05-2026 02:15 10,6 96 0 0 261 0,6 1010,9
9 La Unión Norte 04-05-2026 02:00 10,2 96,1 0 0 250 0,6 1011,1
8 La Unión Norte 04-05-2026 01:45 10,1 96 0 0 250 0,6 1011,1
7 La Unión Norte 04-05-2026 01:30 10,2 95,8 0 0 250 0,6 1011,3
6 La Unión Norte 04-05-2026 01:15 10,7 95,9 0,2 0 263 0,6 1011,4
5 La Unión Norte 04-05-2026 01:00 10,7 96,1 0 0 258 0,6 1011,4
4 La Unión Norte 04-05-2026 00:45 10,1 95,7 0 0 258 0,6 1011,5
3 La Unión Norte 04-05-2026 00:30 10,3 95,3 0 0 263 0,6 1011,7
2 La Unión Norte 04-05-2026 00:15 10,4 95,2 0 0 264 0,6 1011,8
1 La Unión Norte 04-05-2026 00:00 10,4 94,7 0 0 264 0,6 1011,8